createdAt,value
2018-01-11T00:00:04.354Z,6.19
2018-01-11T00:02:30.342Z,6.16
2018-01-11T00:04:56.283Z,6.16
2018-01-11T00:07:22.234Z,6.16
2018-01-11T00:09:49.913Z,6.19
2018-01-11T00:12:15.925Z,6.18
2018-01-11T00:14:44.403Z,6.16
2018-01-11T00:17:10.387Z,6.15
2018-01-11T00:19:39.861Z,6.07
2018-01-11T00:22:05.898Z,6.02
2018-01-11T00:24:35.477Z,5.86
2018-01-11T00:27:01.420Z,5.80
2018-01-11T00:29:29.361Z,5.68
2018-01-11T00:31:55.313Z,5.61
2018-01-11T00:34:24.405Z,5.62
2018-01-11T00:36:50.393Z,5.59
2018-01-11T00:39:16.366Z,5.52
2018-01-11T00:41:42.352Z,5.45
2018-01-11T00:44:08.276Z,5.42
2018-01-11T00:46:35.240Z,5.47
2018-01-11T00:49:01.221Z,5.37
2018-01-11T00:51:30.314Z,5.38
2018-01-11T00:53:56.341Z,5.35
2018-01-11T00:56:25.644Z,5.29
2018-01-11T00:58:51.646Z,5.27
2018-01-11T01:01:20.845Z,5.27
2018-01-11T01:03:46.792Z,5.15
2018-01-11T01:06:15.949Z,5.17
2018-01-11T01:08:41.917Z,5.22
2018-01-11T01:11:09.073Z,5.25
2018-01-11T01:13:35.001Z,5.29
2018-01-11T01:16:00.931Z,5.35
2018-01-11T01:18:26.910Z,5.34
2018-01-11T01:20:52.877Z,5.31
2018-01-11T01:23:22.066Z,5.35
2018-01-11T01:25:48.003Z,5.35
2018-01-11T01:28:15.352Z,5.26
2018-01-11T01:30:41.350Z,5.24
2018-01-11T01:33:10.653Z,5.21
2018-01-11T01:35:36.654Z,5.22
2018-01-11T01:38:04.714Z,5.20
2018-01-11T01:40:30.722Z,5.12
2018-01-11T01:43:00.246Z,5.05
2018-01-11T01:45:26.200Z,4.95
2018-01-11T01:47:55.098Z,4.98
2018-01-11T01:50:21.096Z,4.85
2018-01-11T01:52:47.047Z,4.84
2018-01-11T01:55:13.051Z,4.88
2018-01-11T01:57:39.111Z,4.86
2018-01-11T02:00:06.417Z,4.87
2018-01-11T02:02:32.482Z,4.80
2018-01-11T02:05:00.350Z,4.75
2018-01-11T02:07:26.371Z,4.72
2018-01-11T02:09:55.396Z,4.72
2018-01-11T02:12:21.374Z,4.73
2018-01-11T02:14:50.851Z,4.69
2018-01-11T02:17:16.825Z,4.69
2018-01-11T02:19:44.687Z,4.66
2018-01-11T02:22:10.669Z,4.55
2018-01-11T02:24:40.371Z,4.52
2018-01-11T02:27:06.347Z,4.39
2018-01-11T02:29:32.341Z,4.38
2018-01-11T02:31:58.317Z,4.33
2018-01-11T02:34:24.327Z,4.30
2018-01-11T02:36:51.699Z,4.39
2018-01-11T02:39:17.652Z,4.42
2018-01-11T02:41:46.518Z,4.35
2018-01-11T02:44:12.469Z,4.26
2018-01-11T02:46:42.357Z,4.21
2018-01-11T02:49:08.304Z,4.19
2018-01-11T02:51:35.725Z,4.13
2018-01-11T02:54:01.668Z,4.09
2018-01-11T02:56:30.628Z,4.09
2018-01-11T02:58:56.548Z,4.15
2018-01-11T03:01:24.727Z,4.08
2018-01-11T03:03:50.766Z,4.08
2018-01-11T03:06:16.779Z,4.09
2018-01-11T03:08:42.739Z,4.04
2018-01-11T03:11:08.719Z,3.98
2018-01-11T03:13:36.568Z,3.94
2018-01-11T03:16:02.654Z,3.86
2018-01-11T03:18:32.358Z,3.81
2018-01-11T03:20:58.328Z,3.79
2018-01-11T03:23:27.506Z,3.74
2018-01-11T03:25:53.526Z,3.73
2018-01-11T03:28:21.437Z,3.72
2018-01-11T03:30:47.450Z,3.62
2018-01-11T03:33:15.315Z,3.54
2018-01-11T03:35:41.284Z,3.48
2018-01-11T03:38:10.750Z,3.38
2018-01-11T03:40:36.754Z,3.32
2018-01-11T03:43:02.813Z,3.24
2018-01-11T03:45:28.834Z,3.29
2018-01-11T03:47:54.791Z,3.27
2018-01-11T03:50:21.787Z,3.33
2018-01-11T03:52:47.785Z,3.33
2018-01-11T03:55:16.804Z,3.38
2018-01-11T03:57:42.810Z,3.40
2018-01-11T04:00:12.218Z,3.39
2018-01-11T04:02:38.250Z,3.34
2018-01-11T04:05:07.556Z,3.36
2018-01-11T04:07:33.565Z,3.35
2018-01-11T04:10:01.549Z,3.44
2018-01-11T04:12:27.529Z,3.39
2018-01-11T04:14:55.332Z,3.35
2018-01-11T04:17:21.362Z,3.33
2018-01-11T04:19:47.425Z,3.36
2018-01-11T04:22:13.410Z,3.43
2018-01-11T04:24:39.395Z,3.40
2018-01-11T04:27:08.500Z,3.38
2018-01-11T04:29:34.554Z,3.50
2018-01-11T04:32:02.500Z,3.51
2018-01-11T04:34:28.470Z,3.50
2018-01-11T04:36:56.593Z,3.50
2018-01-11T04:39:22.606Z,3.48
2018-01-11T04:41:52.486Z,3.54
2018-01-11T04:44:18.547Z,3.61
2018-01-11T04:46:47.726Z,3.71
2018-01-11T04:49:13.715Z,3.83
2018-01-11T04:51:40.893Z,3.83
2018-01-11T04:54:06.877Z,3.85
2018-01-11T04:56:32.886Z,3.84
2018-01-11T04:58:58.929Z,3.90
2018-01-11T05:01:24.962Z,4.00
2018-01-11T05:03:54.112Z,4.05
2018-01-11T05:06:20.126Z,4.12
2018-01-11T05:08:47.299Z,4.19
2018-01-11T05:11:13.295Z,4.27
2018-01-11T05:13:42.480Z,4.30
2018-01-11T05:16:08.462Z,4.35
2018-01-11T05:18:37.468Z,4.41
2018-01-11T05:21:03.458Z,4.44
2018-01-11T05:23:32.326Z,4.28
2018-01-11T05:25:58.346Z,4.20
2018-01-11T05:28:27.756Z,4.08
2018-01-11T05:30:53.696Z,4.05
2018-01-11T05:33:19.707Z,4.00
2018-01-11T05:35:45.732Z,3.98
2018-01-11T05:38:11.720Z,3.99
2018-01-11T05:40:37.711Z,4.08
2018-01-11T05:43:03.645Z,3.97
2018-01-11T05:45:33.210Z,3.85
2018-01-11T05:47:59.234Z,3.80
2018-01-11T05:50:26.972Z,3.68
2018-01-11T05:52:52.908Z,3.69
2018-01-11T05:55:21.702Z,3.75
2018-01-11T05:57:47.928Z,3.80
2018-01-11T06:00:17.490Z,3.89
2018-01-11T06:02:43.483Z,4.03
2018-01-11T06:05:12.318Z,4.18
2018-01-11T06:07:38.320Z,4.22
2018-01-11T06:10:04.275Z,4.28
2018-01-11T06:12:30.287Z,4.37
2018-01-11T06:14:56.267Z,4.42
2018-01-11T06:17:23.436Z,4.39
2018-01-11T06:19:49.431Z,4.36
2018-01-11T06:22:18.520Z,4.45
2018-01-11T06:24:44.533Z,4.54
2018-01-11T06:27:13.369Z,4.51
2018-01-11T06:29:39.376Z,4.60
2018-01-11T06:32:07.252Z,4.65
2018-01-11T06:34:33.195Z,4.71
2018-01-11T06:37:02.700Z,4.73
2018-01-11T06:39:28.673Z,4.81
2018-01-11T06:41:57.444Z,4.88
2018-01-11T06:44:23.454Z,4.87
2018-01-11T06:46:49.457Z,4.84
2018-01-11T06:49:15.475Z,4.78
2018-01-11T06:51:41.472Z,4.71
2018-01-11T06:54:08.839Z,4.54
2018-01-11T06:56:34.782Z,4.42
2018-01-11T06:59:03.912Z,4.44
2018-01-11T07:01:29.923Z,4.35
2018-01-11T07:03:58.627Z,4.38
2018-01-11T07:06:24.613Z,4.47
2018-01-11T07:08:52.545Z,4.44
2018-01-11T07:11:18.497Z,4.47
2018-01-11T07:13:47.762Z,4.46
2018-01-11T07:16:13.782Z,4.47
2018-01-11T07:18:42.771Z,4.32
2018-01-11T07:21:08.829Z,4.40
2018-01-11T07:23:34.842Z,4.39
2018-01-11T07:26:00.894Z,4.39
2018-01-11T07:28:26.836Z,4.33
2018-01-11T07:30:54.213Z,4.33
2018-01-11T07:33:20.226Z,4.39
2018-01-11T07:35:49.240Z,4.42
2018-01-11T07:38:15.253Z,4.46
2018-01-11T07:40:43.323Z,4.51
2018-01-11T07:43:09.373Z,4.55
2018-01-11T07:45:38.595Z,4.54
2018-01-11T07:48:04.592Z,4.51
2018-01-11T07:50:32.542Z,4.67
2018-01-11T07:52:58.520Z,4.87
2018-01-11T07:55:27.708Z,5.12
2018-01-11T07:57:53.677Z,5.37
2018-01-11T08:00:19.682Z,5.56
2018-01-11T08:02:45.666Z,5.88
2018-01-11T08:05:11.652Z,6.07
2018-01-11T08:07:39.385Z,6.16
2018-01-11T08:10:05.374Z,6.30
2018-01-11T08:12:34.474Z,6.54
2018-01-11T08:15:00.458Z,6.77
2018-01-11T08:17:28.404Z,6.87
2018-01-11T08:19:54.329Z,6.91
2018-01-11T08:22:23.675Z,6.82
2018-01-11T08:24:49.637Z,6.75
2018-01-11T08:27:19.579Z,6.87
2018-01-11T08:29:45.571Z,6.93
2018-01-11T08:32:12.825Z,7.04
2018-01-11T08:34:38.789Z,7.17
2018-01-11T08:37:04.810Z,7.33
2018-01-11T08:39:30.814Z,7.54
2018-01-11T08:41:56.817Z,7.53
2018-01-11T08:44:24.369Z,7.67
2018-01-11T08:46:50.332Z,7.97
2018-01-11T08:49:19.362Z,8.22
2018-01-11T08:51:45.325Z,8.31
2018-01-11T08:54:15.339Z,8.24
2018-01-11T08:56:41.332Z,8.20
2018-01-11T08:59:08.343Z,8.04
2018-01-11T09:01:34.325Z,8.05
2018-01-11T09:04:03.344Z,7.98
2018-01-11T09:06:29.293Z,8.05
2018-01-11T09:08:58.573Z,8.13
2018-01-11T09:11:24.567Z,8.15
2018-01-11T09:13:50.564Z,8.23
2018-01-11T09:16:16.618Z,8.33
2018-01-11T09:18:42.636Z,8.25
2018-01-11T09:21:10.045Z,7.65
2018-01-11T09:23:36.047Z,7.61
2018-01-11T09:26:05.278Z,7.46
2018-01-11T09:28:31.275Z,7.40
2018-01-11T09:30:59.233Z,7.39
2018-01-11T09:33:25.213Z,7.56
2018-01-11T09:35:54.464Z,8.00
2018-01-11T09:38:20.394Z,8.27
2018-01-11T09:40:49.815Z,8.44
2018-01-11T09:43:15.919Z,8.67
2018-01-11T09:45:43.178Z,8.84
2018-01-11T09:48:09.146Z,9.01
2018-01-11T09:50:35.075Z,9.20
2018-01-11T09:53:01.050Z,9.29
2018-01-11T09:55:27.047Z,9.49
2018-01-11T09:57:55.889Z,9.56
2018-01-11T10:00:21.957Z,9.65
2018-01-11T10:02:49.703Z,9.78
2018-01-11T10:05:15.686Z,9.79
2018-01-11T10:07:44.790Z,10.81
2018-01-11T10:10:10.759Z,11.80
2018-01-11T10:12:39.814Z,12.52
2018-01-11T10:15:05.760Z,12.81
2018-01-11T10:17:33.670Z,13.07
2018-01-11T10:19:59.674Z,13.55
2018-01-11T10:22:28.943Z,14.44
2018-01-11T10:24:54.960Z,15.17
2018-01-11T10:27:20.926Z,15.26
2018-01-11T10:29:46.889Z,15.64
2018-01-11T10:32:12.856Z,15.94
2018-01-11T10:34:40.862Z,15.69
2018-01-11T10:37:06.901Z,15.16
2018-01-11T10:39:34.626Z,14.46
2018-01-11T10:42:00.599Z,14.53
2018-01-11T10:44:30.153Z,13.80
2018-01-11T10:46:56.153Z,13.87
2018-01-11T10:49:25.278Z,13.69
2018-01-11T10:51:51.244Z,13.23
2018-01-11T10:54:20.072Z,12.63
2018-01-11T10:56:46.090Z,12.20
2018-01-11T10:59:13.913Z,11.75
2018-01-11T11:01:46.025Z,11.75
2018-01-11T11:04:12.023Z,11.43
2018-01-11T11:06:38.035Z,11.48
2018-01-11T11:09:04.039Z,11.57
2018-01-11T11:11:30.094Z,11.53
2018-01-11T11:13:56.060Z,11.51
2018-01-11T11:16:22.024Z,11.48
2018-01-11T11:18:48.051Z,11.51
2018-01-11T11:21:15.470Z,11.76
2018-01-11T11:23:41.424Z,11.69
2018-01-11T11:26:10.610Z,11.80
2018-01-11T11:28:36.606Z,11.93
2018-01-11T11:31:05.946Z,11.76
2018-01-11T11:33:31.948Z,11.56
2018-01-11T11:36:01.210Z,11.47
2018-01-11T11:38:27.285Z,11.43
2018-01-11T11:40:53.277Z,11.42
2018-01-11T11:43:19.233Z,11.42
2018-01-11T11:45:45.243Z,11.35
2018-01-11T11:48:11.274Z,11.26
2018-01-11T11:50:37.261Z,11.15
2018-01-11T11:53:06.863Z,11.12
2018-01-11T11:55:32.808Z,11.08
2018-01-11T11:58:01.861Z,10.96
2018-01-11T12:00:27.867Z,10.70
2018-01-11T12:02:56.887Z,10.69
2018-01-11T12:05:22.956Z,10.73
2018-01-11T12:07:49.780Z,10.72
2018-01-11T12:10:15.720Z,10.81
2018-01-11T12:12:45.141Z,10.89
2018-01-11T12:15:11.153Z,10.84
2018-01-11T12:17:37.181Z,10.87
2018-01-11T12:20:03.215Z,10.86
2018-01-11T12:22:29.164Z,10.85
2018-01-11T12:24:56.883Z,10.96
2018-01-11T12:27:22.793Z,10.94
2018-01-11T12:29:51.100Z,11.01
2018-01-11T12:32:17.109Z,11.07
2018-01-11T12:34:46.842Z,11.20
2018-01-11T12:37:12.890Z,11.17
2018-01-11T12:39:40.759Z,11.40
2018-01-11T12:42:06.774Z,11.59
2018-01-11T12:44:35.369Z,11.88
2018-01-11T12:47:01.313Z,12.12
2018-01-11T12:49:31.131Z,12.34
2018-01-11T12:51:57.123Z,12.41
2018-01-11T12:54:23.114Z,12.67
2018-01-11T12:56:49.078Z,12.70
2018-01-11T12:59:15.056Z,12.64
2018-01-11T13:01:41.967Z,12.54
2018-01-11T13:04:07.948Z,12.40
2018-01-11T13:06:36.035Z,12.35
2018-01-11T13:09:02.062Z,12.35
2018-01-11T13:11:31.218Z,12.36
2018-01-11T13:13:57.227Z,12.19
2018-01-11T13:16:27.230Z,12.14
2018-01-11T13:18:53.258Z,12.09
2018-01-11T13:21:20.279Z,12.07
2018-01-11T13:23:46.272Z,12.69
2018-01-11T13:26:15.552Z,13.55
2018-01-11T13:28:41.562Z,14.40
2018-01-11T13:31:07.538Z,15.11
2018-01-11T13:33:33.529Z,15.33
2018-01-11T13:35:59.521Z,15.35
2018-01-11T13:38:27.020Z,15.02
2018-01-11T13:40:53.047Z,15.38
2018-01-11T13:43:22.192Z,15.74
2018-01-11T13:45:48.170Z,15.86
2018-01-11T13:48:16.216Z,16.10
2018-01-11T13:50:42.219Z,16.20
2018-01-11T13:53:11.561Z,16.19
2018-01-11T13:55:37.579Z,15.89
2018-01-11T13:58:06.610Z,15.70
2018-01-11T14:00:32.564Z,15.70
2018-01-11T14:03:01.961Z,15.94
2018-01-11T14:05:27.940Z,16.16
2018-01-11T14:07:53.942Z,16.38
2018-01-11T14:10:19.971Z,16.35
2018-01-11T14:12:45.982Z,16.26
2018-01-11T14:15:11.997Z,15.86
2018-01-11T14:17:37.975Z,15.76
2018-01-11T14:20:07.326Z,15.37
2018-01-11T14:22:33.327Z,15.34
2018-01-11T14:25:01.673Z,15.40
2018-01-11T14:27:27.678Z,15.51
2018-01-11T14:29:56.902Z,15.54
2018-01-11T14:32:22.858Z,15.24
2018-01-11T14:34:50.643Z,15.28
2018-01-11T14:37:16.690Z,15.46
2018-01-11T14:39:45.308Z,15.46
2018-01-11T14:42:11.286Z,15.56
2018-01-11T14:44:37.238Z,15.58
2018-01-11T14:47:03.275Z,15.50
2018-01-11T14:49:29.325Z,15.45
2018-01-11T14:51:58.108Z,15.42
2018-01-11T14:54:24.122Z,15.51
2018-01-11T14:56:51.867Z,15.29
2018-01-11T14:59:17.916Z,14.98
2018-01-11T15:01:47.488Z,14.93
2018-01-11T15:04:13.484Z,15.07
2018-01-11T15:06:42.979Z,14.95
2018-01-11T15:09:09.025Z,14.82
2018-01-11T15:11:38.133Z,14.97
2018-01-11T15:14:04.110Z,15.09
2018-01-11T15:16:31.207Z,14.90
2018-01-11T15:18:57.158Z,14.55
2018-01-11T15:21:23.171Z,14.03
2018-01-11T15:23:49.178Z,13.72
2018-01-11T15:26:15.161Z,13.32
2018-01-11T15:28:42.859Z,13.12
2018-01-11T15:31:08.883Z,12.74
2018-01-11T15:33:37.975Z,12.48
2018-01-11T15:36:03.945Z,12.21
2018-01-11T15:38:32.189Z,11.93
2018-01-11T15:40:58.206Z,11.65
2018-01-11T15:43:27.214Z,11.43
2018-01-11T15:45:53.232Z,11.30
2018-01-11T15:48:22.376Z,11.14
2018-01-11T15:50:48.344Z,10.93
2018-01-11T15:53:17.002Z,10.78
2018-01-11T15:55:43.011Z,10.66
2018-01-11T15:58:08.969Z,10.46
2018-01-11T16:00:34.959Z,10.35
2018-01-11T16:03:00.926Z,10.30
2018-01-11T16:05:28.633Z,10.21
2018-01-11T16:07:54.652Z,10.13
2018-01-11T16:10:23.656Z,9.98
2018-01-11T16:12:49.605Z,9.85
2018-01-11T16:15:18.597Z,9.79
2018-01-11T16:17:44.540Z,9.64
2018-01-11T16:20:12.508Z,9.61
2018-01-11T16:22:38.490Z,9.50
2018-01-11T16:25:08.281Z,9.40
2018-01-11T16:27:34.299Z,9.31
2018-01-11T16:30:03.427Z,9.30
2018-01-11T16:32:29.414Z,9.26
2018-01-11T16:34:55.385Z,9.22
2018-01-11T16:37:21.371Z,9.08
2018-01-11T16:39:47.306Z,8.96
2018-01-11T16:42:13.372Z,8.96
2018-01-11T16:44:39.310Z,8.97
2018-01-11T16:47:08.465Z,8.91
2018-01-11T16:49:34.506Z,8.86
2018-01-11T16:52:03.919Z,8.72
2018-01-11T16:54:29.902Z,8.66
2018-01-11T16:56:59.428Z,8.63
2018-01-11T16:59:25.457Z,8.55
2018-01-11T17:01:52.895Z,8.47
2018-01-11T17:04:18.822Z,8.44
2018-01-11T17:06:48.122Z,8.40
2018-01-11T17:09:14.108Z,8.42
2018-01-11T17:11:40.112Z,8.43
2018-01-11T17:14:06.101Z,8.45
2018-01-11T17:16:32.087Z,8.40
2018-01-11T17:18:59.259Z,8.36
2018-01-11T17:21:25.263Z,8.33
2018-01-11T17:23:53.234Z,8.32
2018-01-11T17:26:19.222Z,8.22
2018-01-11T17:28:48.396Z,8.16
2018-01-11T17:31:14.393Z,8.06
2018-01-11T17:33:44.068Z,7.91
2018-01-11T17:36:10.052Z,7.94
2018-01-11T17:38:37.982Z,7.98
2018-01-11T17:41:03.995Z,7.92
2018-01-11T17:43:33.900Z,7.94
2018-01-11T17:45:59.915Z,7.95
2018-01-11T17:48:25.872Z,7.93
2018-01-11T17:50:51.836Z,7.93
2018-01-11T17:53:17.835Z,7.84
2018-01-11T17:55:43.891Z,7.86
2018-01-11T17:58:09.888Z,7.83
2018-01-11T18:00:38.743Z,7.78
2018-01-11T18:03:04.700Z,7.79
2018-01-11T18:05:33.939Z,7.77
2018-01-11T18:07:59.942Z,7.80
2018-01-11T18:10:29.382Z,7.77
2018-01-11T18:12:55.392Z,7.71
2018-01-11T18:15:23.165Z,7.68
2018-01-11T18:17:49.178Z,7.67
2018-01-11T18:20:18.307Z,7.70
2018-01-11T18:22:44.301Z,7.75
2018-01-11T18:25:10.289Z,7.78
2018-01-11T18:27:36.292Z,7.84
2018-01-11T18:30:02.257Z,7.87
2018-01-11T18:32:30.033Z,7.83
2018-01-11T18:34:56.005Z,7.77
2018-01-11T18:37:24.791Z,7.72
2018-01-11T18:39:50.814Z,7.67
2018-01-11T18:42:19.659Z,7.76
2018-01-11T18:44:45.673Z,7.81
2018-01-11T18:47:15.116Z,7.81
2018-01-11T18:49:41.071Z,7.84
2018-01-11T18:52:08.088Z,7.85
2018-01-11T18:54:34.102Z,7.88
2018-01-11T18:57:03.045Z,7.91
2018-01-11T18:59:29.020Z,7.80
2018-01-11T19:01:55.063Z,7.72
2018-01-11T19:04:21.052Z,7.68
2018-01-11T19:06:47.089Z,7.68
2018-01-11T19:09:14.532Z,7.61
2018-01-11T19:11:40.485Z,7.53
2018-01-11T19:14:09.985Z,7.59
2018-01-11T19:16:36.004Z,7.68
2018-01-11T19:19:04.935Z,7.64
2018-01-11T19:21:30.924Z,7.62
2018-01-11T19:24:00.272Z,7.60
2018-01-11T19:26:26.274Z,7.52
2018-01-11T19:28:54.338Z,7.57
2018-01-11T19:31:20.277Z,7.63
2018-01-11T19:33:48.383Z,7.63
2018-01-11T19:36:14.371Z,7.66
2018-01-11T19:38:40.341Z,7.59
2018-01-11T19:41:06.303Z,7.58
2018-01-11T19:43:32.289Z,7.56
2018-01-11T19:46:01.507Z,7.55
2018-01-11T19:48:27.458Z,7.54
2018-01-11T19:50:54.564Z,7.58
2018-01-11T19:53:20.564Z,7.52
2018-01-11T19:55:49.810Z,7.46
2018-01-11T19:58:15.836Z,7.46
2018-01-11T20:00:45.002Z,7.44
2018-01-11T20:03:10.932Z,7.45
2018-01-11T20:05:38.670Z,7.38
2018-01-11T20:08:04.658Z,7.33
2018-01-11T20:10:34.157Z,7.26
2018-01-11T20:13:00.131Z,7.23
2018-01-11T20:15:26.156Z,7.16
2018-01-11T20:17:52.141Z,7.13
2018-01-11T20:20:18.156Z,7.15
2018-01-11T20:22:45.699Z,7.14
2018-01-11T20:25:11.710Z,7.08
2018-01-11T20:27:40.079Z,7.02
2018-01-11T20:30:06.090Z,6.99
2018-01-11T20:32:35.122Z,6.98
2018-01-11T20:35:01.137Z,7.02
2018-01-11T20:37:31.058Z,6.99
2018-01-11T20:39:57.017Z,6.99
2018-01-11T20:42:24.165Z,7.01
2018-01-11T20:44:50.113Z,7.00
2018-01-11T20:47:19.324Z,6.93
2018-01-11T20:49:45.242Z,6.97
2018-01-11T20:52:11.242Z,6.96
2018-01-11T20:54:37.201Z,6.90
2018-01-11T20:57:03.229Z,6.79
2018-01-11T20:59:30.910Z,6.75
2018-01-11T21:01:56.935Z,6.72
2018-01-11T21:04:26.045Z,6.68
2018-01-11T21:06:52.035Z,6.56
2018-01-11T21:09:20.924Z,6.41
2018-01-11T21:11:46.898Z,6.33
2018-01-11T21:14:16.087Z,6.30
2018-01-11T21:16:42.038Z,6.33
2018-01-11T21:19:09.606Z,6.32
2018-01-11T21:21:35.571Z,6.18
2018-01-11T21:24:04.600Z,6.11
2018-01-11T21:26:30.602Z,6.10
2018-01-11T21:28:56.594Z,6.17
2018-01-11T21:31:22.639Z,6.12
2018-01-11T21:33:48.606Z,6.12
2018-01-11T21:36:16.189Z,6.16
2018-01-11T21:38:42.188Z,6.19
2018-01-11T21:41:11.332Z,6.22
2018-01-11T21:43:37.288Z,6.24
2018-01-11T21:46:05.089Z,6.13
2018-01-11T21:48:31.079Z,6.15
2018-01-11T21:50:59.662Z,6.06
2018-01-11T21:53:25.662Z,6.11
2018-01-11T21:55:54.438Z,6.03
2018-01-11T21:58:20.526Z,5.98
2018-01-11T22:00:50.150Z,5.88
2018-01-11T22:03:16.163Z,5.87
2018-01-11T22:05:42.139Z,5.92
2018-01-11T22:08:08.125Z,5.95
2018-01-11T22:10:34.138Z,5.96
2018-01-11T22:13:01.216Z,5.98
2018-01-11T22:15:27.229Z,5.93
2018-01-11T22:17:56.488Z,5.88
2018-01-11T22:20:22.486Z,5.87
2018-01-11T22:22:50.492Z,5.81
2018-01-11T22:25:16.507Z,5.83
2018-01-11T22:27:45.700Z,5.85
2018-01-11T22:30:11.688Z,5.83
2018-01-11T22:32:40.859Z,5.85
2018-01-11T22:35:06.820Z,5.84
2018-01-11T22:37:34.830Z,5.88
2018-01-11T22:40:00.812Z,5.88
2018-01-11T22:42:26.788Z,5.91
2018-01-11T22:44:52.812Z,5.94
2018-01-11T22:47:18.763Z,5.92
2018-01-11T22:49:46.494Z,5.96
2018-01-11T22:52:12.447Z,5.85
2018-01-11T22:54:41.425Z,5.71
2018-01-11T22:57:07.407Z,5.66
2018-01-11T22:59:36.453Z,5.59
2018-01-11T23:02:02.432Z,5.54
2018-01-11T23:04:32.008Z,5.57
2018-01-11T23:06:58.013Z,5.42
2018-01-11T23:09:25.963Z,5.45
2018-01-11T23:11:52.002Z,5.41
2018-01-11T23:14:20.085Z,5.29
2018-01-11T23:16:46.186Z,5.35
2018-01-11T23:19:12.171Z,5.40
2018-01-11T23:21:38.197Z,5.36
2018-01-11T23:24:04.228Z,5.12
2018-01-11T23:26:32.122Z,5.06
2018-01-11T23:28:58.123Z,5.10
2018-01-11T23:31:27.129Z,5.13
2018-01-11T23:33:53.147Z,5.21
2018-01-11T23:36:22.065Z,5.28
2018-01-11T23:38:48.001Z,5.34
2018-01-11T23:41:16.841Z,5.09
2018-01-11T23:43:42.859Z,5.17
2018-01-11T23:46:10.589Z,5.21
2018-01-11T23:48:36.590Z,5.27
2018-01-11T23:51:06.136Z,5.29
2018-01-11T23:53:32.135Z,5.28
2018-01-11T23:55:58.116Z,5.32
2018-01-11T23:58:24.142Z,5.32
